Terminal Aerodrome Forecast
Issued by NWS

Home | Current Version | Previous Version | Text Only | Print | Product List | Glossary On
Versions: 1 2 3 4 5 6 7 8 9 10 11 12 13 14 15 16 17 18 19 20 21 22 23 24 25 26 27 28
605
FTUS45 KTWC 231139
TAFOLS
TAF
KOLS 231139Z 2312/2412 17008KT P6SM SCT090
     FM231800 21018G28KT P6SM SCT060 OVC100
     FM240400 19014G24KT P6SM -SHRA SCT025 OVC040
     FM240900 20008KT P6SM SCT025 OVC050=

USA.gov is the U.S. government's official web portal to all federal, state and local government web resources and services.